Time;durP1;ratioP1;P1;durP2;ratioP2;P2;SDS_P1;SDS_P2;PMS_P1;PMS_P2;Temp;Humidity;BMP_temperature;BMP_pressure;BME280_temperature;BME280_humidity;BME280_pressure;Samples;Min_cycle;Max_cycle;Signal;HPM_P1;HPM_P2
2021/09/15 00:00:26;;;;;;;5.80;3.77;;;17.50;83.50;;;;;;2073323;28;20178;-65
2021/09/15 00:01:27;;;;;;;6.57;3.33;;;17.40;83.50;;;;;;2072788;28;20178;-64
2021/09/15 00:02:28;;;;;;;4.73;3.60;;;17.40;85.00;;;;;;2073128;28;20343;-65
2021/09/15 00:03:28;;;;;;;6.37;3.90;;;17.30;85.60;;;;;;2073205;28;20206;-64
2021/09/15 00:04:29;;;;;;;5.27;3.70;;;17.20;87.70;;;;;;2073233;28;20202;-65
2021/09/15 00:05:30;;;;;;;6.17;3.53;;;17.10;88.00;;;;;;2073084;28;20197;-65
2021/09/15 00:06:31;;;;;;;5.57;3.97;;;17.00;89.40;;;;;;2073180;28;20178;-65
2021/09/15 00:07:31;;;;;;;4.57;3.47;;;16.90;90.20;;;;;;2073159;28;20170;-64
2021/09/15 00:08:33;;;;;;;4.90;3.80;;;16.80;90.40;;;;;;2073264;28;20273;-65
2021/09/15 00:09:34;;;;;;;5.23;3.77;;;16.80;90.80;;;;;;2073008;28;20648;-65
2021/09/15 00:10:34;;;;;;;8.03;4.57;;;16.70;91.00;;;;;;2073210;28;20509;-65
2021/09/15 00:11:35;;;;;;;7.50;4.27;;;16.70;91.60;;;;;;2072864;28;20244;-65
2021/09/15 00:12:37;;;;;;;4.43;3.80;;;16.70;92.00;;;;;;2073087;28;20180;-66
2021/09/15 00:13:41;;;;;;;8.43;4.13;;;16.60;92.50;;;;;;2073052;28;20174;-65
2021/09/15 00:14:41;;;;;;;8.10;4.63;;;16.60;92.00;;;;;;2073124;28;20417;-64
2021/09/15 00:15:42;;;;;;;7.70;4.13;;;16.70;92.10;;;;;;2073065;28;20924;-65
2021/09/15 00:16:43;;;;;;;5.67;4.13;;;16.70;92.10;;;;;;2073175;28;20220;-65
2021/09/15 00:17:44;;;;;;;5.23;4.00;;;16.80;91.90;;;;;;2073239;28;20592;-65
2021/09/15 00:18:44;;;;;;;4.50;4.10;;;16.80;91.60;;;;;;2073185;28;20268;-65
2021/09/15 00:19:45;;;;;;;8.73;4.60;;;16.80;92.10;;;;;;2073024;28;20178;-65
2021/09/15 00:20:46;;;;;;;4.73;3.90;;;16.90;92.20;;;;;;2073006;28;20185;-65
2021/09/15 00:21:46;;;;;;;5.00;4.00;;;16.90;92.30;;;;;;2072932;28;20185;-65
2021/09/15 00:22:47;;;;;;;6.20;4.87;;;16.90;92.30;;;;;;2073061;28;20181;-65
2021/09/15 00:23:48;;;;;;;8.13;4.70;;;16.90;92.30;;;;;;2073305;28;20193;-64
2021/09/15 00:24:48;;;;;;;8.00;4.93;;;16.90;92.50;;;;;;2073078;28;20174;-65
2021/09/15 00:25:49;;;;;;;4.90;4.40;;;16.90;92.30;;;;;;2073123;28;20558;-65
2021/09/15 00:26:50;;;;;;;6.80;4.67;;;16.90;92.60;;;;;;2073277;28;20193;-65
2021/09/15 00:27:50;;;;;;;6.63;4.70;;;16.90;92.80;;;;;;2073179;28;20625;-66
2021/09/15 00:28:51;;;;;;;5.57;4.27;;;16.90;92.80;;;;;;2072493;28;20186;-65
2021/09/15 00:29:52;;;;;;;6.50;4.40;;;16.90;92.80;;;;;;2072601;28;20178;-65
2021/09/15 00:30:53;;;;;;;5.20;4.33;;;16.80;92.50;;;;;;2073000;28;20570;-65
2021/09/15 00:31:53;;;;;;;7.10;4.37;;;16.80;92.50;;;;;;2072789;28;20503;-65
2021/09/15 00:32:54;;;;;;;6.73;4.27;;;16.80;93.10;;;;;;2072996;28;20177;-64
2021/09/15 00:33:55;;;;;;;7.90;4.30;;;16.80;92.60;;;;;;2073065;28;20170;-65
2021/09/15 00:34:55;;;;;;;5.67;4.23;;;16.80;92.60;;;;;;2072995;28;20174;-65
2021/09/15 00:35:56;;;;;;;6.17;4.43;;;16.80;92.80;;;;;;2073096;28;20200;-65
2021/09/15 00:36:57;;;;;;;6.33;4.83;;;16.80;92.90;;;;;;2073117;28;20169;-65
2021/09/15 00:37:58;;;;;;;6.80;4.90;;;16.80;93.00;;;;;;2073062;28;20624;-65
2021/09/15 00:38:59;;;;;;;8.90;5.20;;;16.90;93.40;;;;;;2074176;28;20432;-66
2021/09/15 00:39:59;;;;;;;6.13;5.03;;;16.80;93.50;;;;;;2074479;28;20189;-66
2021/09/15 00:41:00;;;;;;;7.37;4.97;;;16.80;93.50;;;;;;2074322;28;20174;-65
2021/09/15 00:42:00;;;;;;;6.47;4.97;;;16.80;93.60;;;;;;2074613;28;20742;-65
2021/09/15 00:43:01;;;;;;;7.67;5.33;;;16.90;93.60;;;;;;2074442;28;20208;-66
2021/09/15 00:44:08;;;;;;;9.33;5.13;;;16.90;93.70;;;;;;2074270;28;20181;-65
2021/09/15 00:45:09;;;;;;;8.00;5.20;;;16.90;93.60;;;;;;2074391;28;20196;-65
2021/09/15 00:46:10;;;;;;;9.80;6.07;;;16.90;93.60;;;;;;2074315;28;20927;-65
2021/09/15 00:47:10;;;;;;;9.43;5.67;;;16.90;93.60;;;;;;2074494;28;20417;-65
2021/09/15 00:48:11;;;;;;;5.97;5.37;;;16.90;93.70;;;;;;2074442;28;20588;-65
2021/09/15 00:49:12;;;;;;;8.17;5.40;;;16.90;93.60;;;;;;2074310;28;20212;-65
2021/09/15 00:50:14;;;;;;;6.23;5.13;;;16.90;93.60;;;;;;2074380;28;20184;-65
2021/09/15 00:51:15;;;;;;;6.07;5.10;;;16.90;93.60;;;;;;2073449;28;20213;-64
2021/09/15 00:52:17;;;;;;;7.37;5.17;;;16.90;94.00;;;;;;2073546;28;20504;-65
2021/09/15 00:53:18;;;;;;;7.60;4.93;;;16.80;93.90;;;;;;2074253;28;20496;-65
2021/09/15 00:54:19;;;;;;;6.07;5.13;;;16.80;93.90;;;;;;2073750;28;20786;-65
2021/09/15 00:55:20;;;;;;;5.60;5.10;;;16.90;93.90;;;;;;2065560;28;20171;-64
2021/09/15 00:56:20;;;;;;;11.13;5.10;;;16.80;94.10;;;;;;2073786;28;20516;-64
2021/09/15 00:57:21;;;;;;;7.07;5.07;;;16.80;94.30;;;;;;2074248;28;20166;-65
2021/09/15 00:58:22;;;;;;;7.57;5.43;;;16.80;94.30;;;;;;2074313;28;20641;-65
2021/09/15 00:59:22;;;;;;;10.97;5.00;;;16.80;94.30;;;;;;2074369;28;20200;-65
2021/09/15 01:00:23;;;;;;;6.13;4.73;;;16.80;94.10;;;;;;2074140;28;20192;-65
2021/09/15 01:01:24;;;;;;;7.80;5.17;;;16.80;94.10;;;;;;2074201;28;20174;-65
2021/09/15 01:02:27;;;;;;;5.87;5.00;;;16.80;94.20;;;;;;2074437;28;20943;-64
2021/09/15 01:03:28;;;;;;;8.07;5.00;;;16.80;94.10;;;;;;2074422;28;20206;-65
2021/09/15 01:04:28;;;;;;;8.03;4.77;;;16.80;94.10;;;;;;2074385;28;20425;-64
2021/09/15 01:05:29;;;;;;;6.53;4.97;;;16.90;94.10;;;;;;2074230;28;20257;-65
2021/09/15 01:06:33;;;;;;;8.77;5.50;;;16.90;94.00;;;;;;2074305;28;20238;-65
2021/09/15 01:07:35;;;;;;;8.77;5.17;;;16.80;94.10;;;;;;2073655;28;20205;-65
2021/09/15 01:08:36;;;;;;;5.33;4.77;;;16.80;94.00;;;;;;2073641;28;20531;-65
2021/09/15 01:09:37;;;;;;;9.20;5.10;;;16.80;94.10;;;;;;2073733;28;20424;-65
2021/09/15 01:10:38;;;;;;;7.13;4.60;;;16.80;93.90;;;;;;2073732;28;20181;-64
2021/09/15 01:11:40;;;;;;;7.83;5.30;;;16.80;93.90;;;;;;2073123;28;20209;-64
2021/09/15 01:12:42;;;;;;;7.50;4.90;;;16.80;93.80;;;;;;2073729;28;20428;-64
2021/09/15 01:13:45;;;;;;;5.90;4.70;;;16.80;93.70;;;;;;2073673;28;20636;-64
2021/09/15 01:14:46;;;;;;;9.60;5.97;;;16.90;93.60;;;;;;2073388;28;20919;-64
2021/09/15 01:15:46;;;;;;;6.57;4.87;;;16.80;93.80;;;;;;2073622;28;20413;-64
2021/09/15 01:16:56;;;;;;;5.87;5.00;;;16.80;94.00;;;;;;2073955;28;20555;-64
2021/09/15 01:17:57;;;;;;;6.43;4.47;;;16.80;94.20;;;;;;2074184;28;20168;-64
2021/09/15 01:18:57;;;;;;;7.33;4.87;;;16.80;93.70;;;;;;2073995;28;20420;-64
2021/09/15 01:19:58;;;;;;;5.60;5.00;;;16.80;94.00;;;;;;2073559;28;20188;-65
2021/09/15 01:20:59;;;;;;;7.33;4.77;;;16.70;94.10;;;;;;2073503;28;20647;-64
2021/09/15 01:22:00;;;;;;;6.27;5.30;;;16.60;94.50;;;;;;2073929;28;20750;-65
2021/09/15 01:23:01;;;;;;;7.43;5.47;;;16.60;94.50;;;;;;2074038;28;20447;-63
2021/09/15 01:24:02;;;;;;;7.63;4.70;;;16.60;94.40;;;;;;2074119;28;20443;-64
2021/09/15 01:25:03;;;;;;;6.57;4.73;;;16.60;94.50;;;;;;2074086;28;20178;-64
2021/09/15 01:26:04;;;;;;;7.27;5.27;;;16.60;94.60;;;;;;2074824;28;20181;-65
2021/09/15 01:27:04;;;;;;;9.60;5.63;;;16.60;94.70;;;;;;2073990;28;20424;-64
2021/09/15 01:28:05;;;;;;;7.87;5.60;;;16.60;94.70;;;;;;2074419;28;20173;-64
2021/09/15 01:29:17;;;;;;;6.67;5.70;;;16.60;94.60;;;;;;2073519;28;20182;-65
2021/09/15 01:30:17;;;;;;;7.13;5.27;;;16.70;94.70;;;;;;2073658;28;20169;-64
2021/09/15 01:31:18;;;;;;;6.90;5.30;;;16.70;94.80;;;;;;2073838;28;20428;-65
2021/09/15 01:32:19;;;;;;;8.00;4.97;;;16.70;94.80;;;;;;2073986;28;20225;-65
2021/09/15 01:33:21;;;;;;;10.13;5.67;;;16.70;94.60;;;;;;2073563;28;20209;-65
2021/09/15 01:34:23;;;;;;;8.80;4.90;;;16.60;94.60;;;;;;2073678;28;20178;-65
2021/09/15 01:35:23;;;;;;;5.67;5.07;;;16.60;94.70;;;;;;2074165;28;20412;-64
2021/09/15 01:36:24;;;;;;;7.67;5.20;;;16.60;94.80;;;;;;2074235;28;20444;-64
2021/09/15 01:37:25;;;;;;;6.20;5.37;;;16.60;94.80;;;;;;2074109;28;20542;-65
2021/09/15 01:38:25;;;;;;;10.73;5.50;;;16.60;94.80;;;;;;2074011;28;20184;-64
2021/09/15 01:39:26;;;;;;;6.67;4.97;;;16.60;94.90;;;;;;2074125;28;20181;-65
2021/09/15 01:40:27;;;;;;;7.53;4.80;;;16.60;95.00;;;;;;2074243;28;20275;-65
2021/09/15 01:41:29;;;;;;;9.17;5.47;;;16.60;95.00;;;;;;2073800;28;20190;-65
2021/09/15 01:42:29;;;;;;;6.07;4.80;;;16.60;95.00;;;;;;2074117;28;20487;-64
2021/09/15 01:43:30;;;;;;;6.83;5.13;;;16.60;95.00;;;;;;2073814;28;20484;-65
2021/09/15 01:44:44;;;;;;;5.97;5.17;;;16.60;94.90;;;;;;2074173;28;20246;-64
2021/09/15 01:45:45;;;;;;;6.27;5.03;;;16.60;95.00;;;;;;2074035;28;20169;-64
2021/09/15 01:46:45;;;;;;;6.60;4.97;;;16.60;95.20;;;;;;2074006;28;20452;-64
2021/09/15 01:47:46;;;;;;;9.33;4.90;;;16.60;95.50;;;;;;2073859;28;20174;-65
2021/09/15 01:48:47;;;;;;;5.50;4.87;;;16.60;95.50;;;;;;2073830;28;20671;-64
2021/09/15 01:49:48;;;;;;;9.67;5.20;;;16.60;95.40;;;;;;2073596;28;20201;-64
2021/09/15 01:50:48;;;;;;;7.63;5.23;;;16.70;95.20;;;;;;2073610;28;20305;-65
2021/09/15 01:51:49;;;;;;;8.43;4.83;;;16.70;94.90;;;;;;2073409;28;20579;-64
2021/09/15 01:52:50;;;;;;;7.80;5.37;;;16.70;95.00;;;;;;2074080;28;20645;-64
2021/09/15 01:53:51;;;;;;;10.17;5.90;;;16.70;95.10;;;;;;2073779;28;20177;-65
2021/09/15 01:54:52;;;;;;;6.30;5.23;;;16.60;95.30;;;;;;2073842;28;20942;-64
2021/09/15 01:55:52;;;;;;;8.60;5.53;;;16.60;95.30;;;;;;2073857;28;20260;-64
2021/09/15 01:56:53;;;;;;;6.27;5.03;;;16.60;95.60;;;;;;2073765;28;20201;-64
2021/09/15 01:57:55;;;;;;;8.03;5.63;;;16.50;95.80;;;;;;2073745;28;20641;-64
2021/09/15 01:58:55;;;;;;;9.27;5.00;;;16.50;96.00;;;;;;2073819;28;20413;-64
2021/09/15 01:59:57;;;;;;;7.07;5.37;;;16.50;96.10;;;;;;2073767;28;20453;-64
2021/09/15 02:00:57;;;;;;;8.67;5.20;;;16.50;96.00;;;;;;2073755;28;20174;-64
2021/09/15 02:01:58;;;;;;;5.73;4.87;;;16.50;96.00;;;;;;2073549;28;21016;-64
2021/09/15 02:02:59;;;;;;;8.27;5.17;;;16.50;95.80;;;;;;2073858;28;20261;-64
2021/09/15 02:04:00;;;;;;;6.43;5.50;;;16.50;95.70;;;;;;2073757;28;20182;-64
2021/09/15 02:05:00;;;;;;;7.80;5.03;;;16.50;95.80;;;;;;2073765;28;20272;-64
2021/09/15 02:06:01;;;;;;;7.63;5.07;;;16.50;95.80;;;;;;2073735;28;20197;-65
2021/09/15 02:07:02;;;;;;;7.93;5.57;;;16.50;95.70;;;;;;2073763;28;20232;-64
2021/09/15 02:08:03;;;;;;;7.17;5.27;;;16.50;95.70;;;;;;2073863;28;20583;-65
2021/09/15 02:09:05;;;;;;;7.90;4.60;;;16.60;95.80;;;;;;2073566;28;20687;-64
2021/09/15 02:10:07;;;;;;;5.67;4.70;;;16.60;95.70;;;;;;2073147;28;20204;-64
2021/09/15 02:11:08;;;;;;;6.93;5.33;;;16.60;95.60;;;;;;2072691;28;20433;-64
2021/09/15 02:12:08;;;;;;;5.30;4.80;;;16.70;95.40;;;;;;2073616;28;20519;-64
2021/09/15 02:13:09;;;;;;;6.93;4.60;;;16.70;95.20;;;;;;2073603;28;20228;-64
2021/09/15 02:14:10;;;;;;;8.73;5.00;;;16.70;95.00;;;;;;2073685;28;20248;-64
2021/09/15 02:15:13;;;;;;;7.20;5.10;;;16.70;95.00;;;;;;2073849;28;20277;-64
2021/09/15 02:16:14;;;;;;;7.03;5.40;;;16.70;95.00;;;;;;2073857;28;20554;-64
2021/09/15 02:17:14;;;;;;;8.10;5.40;;;16.70;95.10;;;;;;2073571;28;20444;-64
2021/09/15 02:18:15;;;;;;;8.77;4.97;;;16.70;95.10;;;;;;2073634;28;20174;-65
2021/09/15 02:19:16;;;;;;;7.03;5.60;;;16.70;95.20;;;;;;2073551;28;20224;-64
2021/09/15 02:20:17;;;;;;;7.70;5.07;;;16.70;95.10;;;;;;2073617;28;20645;-64
2021/09/15 02:21:18;;;;;;;8.83;5.63;;;16.70;95.10;;;;;;2073334;28;20174;-64
2021/09/15 02:22:19;;;;;;;9.20;5.80;;;16.70;95.20;;;;;;2072914;28;20220;-64
2021/09/15 02:23:20;;;;;;;8.50;5.93;;;16.70;95.20;;;;;;2073074;28;20471;-64
2021/09/15 02:24:21;;;;;;;7.37;5.27;;;16.70;95.20;;;;;;2073803;28;20216;-64
2021/09/15 02:25:22;;;;;;;7.53;5.40;;;16.70;95.30;;;;;;2073574;28;20174;-64
2021/09/15 02:26:23;;;;;;;8.43;6.10;;;16.70;95.30;;;;;;2073717;28;20417;-64
2021/09/15 02:27:23;;;;;;;8.77;5.53;;;16.70;95.30;;;;;;2073654;28;20645;-65
2021/09/15 02:28:24;;;;;;;8.43;5.33;;;16.70;95.30;;;;;;2073591;28;20199;-69
2021/09/15 02:29:25;;;;;;;7.93;5.50;;;16.70;95.20;;;;;;2073567;28;20181;-64
2021/09/15 02:30:26;;;;;;;6.83;5.67;;;16.70;95.20;;;;;;2073601;28;20185;-64
2021/09/15 02:31:27;;;;;;;10.40;5.90;;;16.70;95.20;;;;;;2073284;28;20456;-64
2021/09/15 02:32:28;;;;;;;6.07;5.00;;;16.70;95.20;;;;;;2073485;28;20216;-64
2021/09/15 02:33:28;;;;;;;8.87;5.73;;;16.70;95.20;;;;;;2073477;28;20420;-64
2021/09/15 02:34:29;;;;;;;7.60;5.47;;;16.70;95.20;;;;;;2073667;28;20177;-64
2021/09/15 02:35:30;;;;;;;8.13;5.27;;;16.70;95.20;;;;;;2073517;28;20196;-65
2021/09/15 02:36:30;;;;;;;9.13;5.67;;;16.70;95.20;;;;;;2073552;28;20178;-65
2021/09/15 02:37:31;;;;;;;9.60;6.17;;;16.70;95.20;;;;;;2073464;28;20173;-64
2021/09/15 02:38:32;;;;;;;8.03;6.10;;;16.70;95.20;;;;;;2073472;28;20193;-65
2021/09/15 02:39:33;;;;;;;9.73;5.50;;;16.70;95.20;;;;;;2073551;28;20339;-65
2021/09/15 02:40:33;;;;;;;6.60;4.90;;;16.70;95.30;;;;;;2073716;28;20174;-64
2021/09/15 02:41:34;;;;;;;8.17;5.83;;;16.70;95.30;;;;;;2072991;28;20690;-65
2021/09/15 02:42:35;;;;;;;6.90;5.70;;;16.70;95.40;;;;;;2073343;28;20185;-64
2021/09/15 02:43:35;;;;;;;9.57;5.57;;;16.70;95.70;;;;;;2073581;28;20210;-64
2021/09/15 02:44:36;;;;;;;7.40;5.20;;;16.70;95.20;;;;;;2073644;28;20181;-64
2021/09/15 02:45:37;;;;;;;7.83;5.93;;;16.70;95.20;;;;;;2073642;28;20231;-64
2021/09/15 02:46:38;;;;;;;7.73;5.70;;;16.70;95.30;;;;;;2073398;28;20184;-64
2021/09/15 02:47:38;;;;;;;6.50;5.37;;;16.70;95.30;;;;;;2066061;28;20722;-66
2021/09/15 02:48:39;;;;;;;9.13;5.80;;;16.70;95.40;;;;;;2065170;28;20213;-64
2021/09/15 02:49:40;;;;;;;8.33;6.03;;;16.60;95.30;;;;;;2065128;28;20209;-66
2021/09/15 02:50:40;;;;;;;8.00;6.03;;;16.70;95.50;;;;;;2065442;28;20257;-64
2021/09/15 02:51:41;;;;;;;8.20;5.43;;;16.60;95.60;;;;;;2064924;28;20202;-64
2021/09/15 02:52:42;;;;;;;7.50;5.27;;;16.60;95.70;;;;;;2065355;28;20623;-64
2021/09/15 02:53:42;;;;;;;10.80;6.50;;;16.60;95.90;;;;;;2065445;28;20216;-64
2021/09/15 02:54:43;;;;;;;10.43;5.93;;;16.50;96.10;;;;;;2065299;28;20178;-64
2021/09/15 02:55:44;;;;;;;9.67;6.00;;;16.50;96.10;;;;;;2065258;28;20189;-63
2021/09/15 02:56:44;;;;;;;8.97;5.30;;;16.50;96.10;;;;;;2065217;28;20174;-64
2021/09/15 02:57:45;;;;;;;10.50;5.53;;;16.50;96.10;;;;;;2064892;28;20540;-63
2021/09/15 02:58:46;;;;;;;7.37;5.50;;;16.60;95.90;;;;;;2065132;28;20236;-64
2021/09/15 02:59:46;;;;;;;7.47;5.73;;;16.60;95.80;;;;;;2065163;28;20210;-64
2021/09/15 03:00:47;;;;;;;7.03;5.17;;;16.60;95.70;;;;;;2065155;28;20522;-63
2021/09/15 03:01:48;;;;;;;8.53;5.67;;;16.60;95.70;;;;;;2064193;28;20182;-64
2021/09/15 03:02:48;;;;;;;7.20;5.13;;;16.60;95.60;;;;;;2064785;28;20182;-64
2021/09/15 03:03:49;;;;;;;9.03;5.60;;;16.60;95.60;;;;;;2065131;28;20221;-64
2021/09/15 03:04:50;;;;;;;7.07;5.43;;;16.60;95.40;;;;;;2065151;28;20213;-64
2021/09/15 03:05:50;;;;;;;7.60;5.80;;;16.60;95.50;;;;;;2065029;28;20645;-64
2021/09/15 03:06:51;;;;;;;8.77;5.83;;;16.60;95.60;;;;;;2065148;28;20185;-64
2021/09/15 03:07:52;;;;;;;8.23;5.50;;;16.60;95.60;;;;;;2065198;28;20197;-64
2021/09/15 03:08:52;;;;;;;8.17;5.60;;;16.60;95.60;;;;;;2065072;28;20212;-64
2021/09/15 03:09:53;;;;;;;8.00;5.73;;;16.60;95.60;;;;;;2065156;28;20535;-64
2021/09/15 03:10:54;;;;;;;6.43;5.37;;;16.60;95.60;;;;;;2065014;28;20240;-63
2021/09/15 03:11:54;;;;;;;7.03;5.70;;;16.60;95.70;;;;;;2064674;28;20218;-64
2021/09/15 03:12:55;;;;;;;6.90;5.40;;;16.60;95.70;;;;;;2064983;28;20209;-63
2021/09/15 03:13:56;;;;;;;8.97;5.47;;;16.60;95.60;;;;;;2064978;28;20217;-63
2021/09/15 03:14:57;;;;;;;9.53;5.30;;;16.70;95.40;;;;;;2064994;28;20421;-64
2021/09/15 03:15:58;;;;;;;12.27;5.00;;;16.70;95.30;;;;;;2064394;28;20182;-63
2021/09/15 03:16:58;;;;;;;11.07;5.27;;;16.70;95.20;;;;;;2064405;28;20174;-64
2021/09/15 03:17:59;;;;;;;8.07;5.50;;;16.70;95.20;;;;;;2065169;28;20191;-63
2021/09/15 03:19:00;;;;;;;6.10;5.20;;;16.70;95.20;;;;;;2064892;28;20170;-64
2021/09/15 03:20:00;;;;;;;6.30;5.30;;;16.70;95.10;;;;;;2065015;28;20564;-65
2021/09/15 03:21:01;;;;;;;7.37;5.30;;;16.70;95.10;;;;;;2064779;28;20270;-65
2021/09/15 03:22:02;;;;;;;6.63;5.93;;;16.70;95.20;;;;;;2064939;28;20630;-64
2021/09/15 03:23:04;;;;;;;9.20;5.30;;;16.70;95.30;;;;;;2064946;28;20693;-65
2021/09/15 03:24:04;;;;;;;8.87;5.70;;;16.70;95.40;;;;;;2064944;28;20186;-64
2021/09/15 03:25:07;;;;;;;10.60;5.47;;;16.60;95.50;;;;;;2065016;28;20797;-63
2021/09/15 03:26:08;;;;;;;6.47;5.20;;;16.60;95.70;;;;;;2065070;28;20190;-63
2021/09/15 03:27:09;;;;;;;8.33;5.90;;;16.50;95.70;;;;;;2064834;28;20870;-65
2021/09/15 03:28:10;;;;;;;8.03;5.60;;;16.50;95.80;;;;;;2064980;28;20681;-64
2021/09/15 03:29:10;;;;;;;7.87;5.57;;;16.40;96.00;;;;;;2064904;28;20497;-63
2021/09/15 03:30:11;;;;;;;10.87;5.00;;;16.40;96.00;;;;;;2064967;28;20192;-64
2021/09/15 03:31:12;;;;;;;8.37;5.93;;;16.40;96.10;;;;;;2063976;28;20265;-63
2021/09/15 03:32:13;;;;;;;10.03;5.37;;;16.40;96.10;;;;;;2064310;28;20559;-64
2021/09/15 03:33:13;;;;;;;9.70;5.37;;;16.40;96.10;;;;;;2064895;28;20190;-64
2021/09/15 03:34:14;;;;;;;7.37;5.33;;;16.40;96.10;;;;;;2065001;28;20174;-63
2021/09/15 03:35:15;;;;;;;6.30;5.50;;;16.40;96.00;;;;;;2064840;28;20185;-64
2021/09/15 03:36:16;;;;;;;8.47;6.03;;;16.50;95.90;;;;;;2064899;28;20175;-64
2021/09/15 03:37:16;;;;;;;8.63;5.30;;;16.50;95.70;;;;;;2064864;28;20607;-63
2021/09/15 03:38:17;;;;;;;6.80;5.20;;;16.50;95.80;;;;;;2065001;28;20178;-64
2021/09/15 03:39:18;;;;;;;8.20;5.90;;;16.40;95.90;;;;;;2064831;28;20174;-63
2021/09/15 03:40:18;;;;;;;8.03;6.23;;;16.40;96.00;;;;;;2064884;28;20198;-64
2021/09/15 03:41:19;;;;;;;8.60;5.73;;;16.50;96.20;;;;;;2064658;28;20189;-64
2021/09/15 03:42:20;;;;;;;10.20;6.23;;;16.50;96.20;;;;;;2064689;28;20206;-63
2021/09/15 03:43:20;;;;;;;9.23;5.60;;;16.50;96.10;;;;;;2064962;28;20240;-64
2021/09/15 03:44:21;;;;;;;10.63;5.77;;;16.50;96.10;;;;;;2065032;28;20221;-64
2021/09/15 03:45:22;;;;;;;7.93;5.67;;;16.50;96.40;;;;;;2064971;28;20183;-64
2021/09/15 03:46:22;;;;;;;8.93;5.77;;;16.50;96.10;;;;;;2064875;28;20192;-64
2021/09/15 03:47:23;;;;;;;10.13;5.93;;;16.50;96.10;;;;;;2065054;28;20183;-64
2021/09/15 03:48:24;;;;;;;7.50;5.40;;;16.50;96.30;;;;;;2064874;28;20554;-64
2021/09/15 03:49:24;;;;;;;6.23;4.87;;;16.40;96.30;;;;;;2064887;28;20186;-63
2021/09/15 03:50:25;;;;;;;12.20;6.67;;;16.50;96.50;;;;;;2065063;28;20536;-64
2021/09/15 03:51:26;;;;;;;7.57;5.73;;;16.50;96.30;;;;;;2064664;28;20186;-63
2021/09/15 03:52:27;;;;;;;11.73;5.80;;;16.50;96.10;;;;;;2065002;28;20244;-63
2021/09/15 03:53:28;;;;;;;7.90;5.50;;;16.50;96.10;;;;;;2065168;28;20793;-64
2021/09/15 03:54:30;;;;;;;9.87;5.93;;;16.60;96.10;;;;;;2065111;28;20178;-63
2021/09/15 03:55:30;;;;;;;10.50;6.00;;;16.60;96.00;;;;;;2065057;28;20201;-64
2021/09/15 03:56:31;;;;;;;8.90;5.50;;;16.50;95.90;;;;;;2064904;28;20890;-65
2021/09/15 03:57:32;;;;;;;7.50;5.60;;;16.50;95.90;;;;;;2064994;28;20213;-64
2021/09/15 03:58:32;;;;;;;10.93;5.70;;;16.60;95.90;;;;;;2064908;28;20199;-63
2021/09/15 03:59:33;;;;;;;8.17;4.87;;;16.60;95.80;;;;;;2064912;28;20269;-63
2021/09/15 04:00:34;;;;;;;8.07;5.50;;;16.60;96.30;;;;;;2064792;28;20182;-64
2021/09/15 04:01:35;;;;;;;7.40;4.47;;;16.60;95.80;;;;;;2064504;28;20175;-64
2021/09/15 04:02:35;;;;;;;9.20;5.40;;;16.60;95.80;;;;;;2064835;28;20236;-63
2021/09/15 04:03:39;;;;;;;6.50;5.53;;;16.50;95.70;;;;;;2064902;28;20178;-63
2021/09/15 04:04:40;;;;;;;9.27;5.40;;;16.50;95.90;;;;;;2064729;28;20700;-64
2021/09/15 04:05:40;;;;;;;7.60;5.37;;;16.50;96.00;;;;;;2064630;28;20433;-64
2021/09/15 04:06:41;;;;;;;12.10;6.53;;;16.50;96.10;;;;;;2064202;28;20665;-63
2021/09/15 04:07:42;;;;;;;9.73;5.87;;;16.40;96.10;;;;;;2064291;28;20175;-64
2021/09/15 04:08:42;;;;;;;6.77;5.50;;;16.40;96.10;;;;;;2064888;28;20178;-64
2021/09/15 04:09:43;;;;;;;7.53;5.83;;;16.40;96.10;;;;;;2064888;28;20550;-63
2021/09/15 04:10:44;;;;;;;7.20;5.67;;;16.50;96.20;;;;;;2064740;28;20178;-65
2021/09/15 04:11:44;;;;;;;8.70;6.60;;;16.50;96.00;;;;;;2064561;28;20290;-63
2021/09/15 04:12:45;;;;;;;9.73;6.10;;;16.50;95.80;;;;;;2064759;28;20205;-64
2021/09/15 04:13:46;;;;;;;9.37;6.17;;;16.50;95.80;;;;;;2065867;28;20538;-64
2021/09/15 04:14:47;;;;;;;7.70;6.40;;;16.50;95.80;;;;;;2066375;28;20202;-63
2021/09/15 04:15:48;;;;;;;9.17;6.40;;;16.50;95.80;;;;;;2066407;28;20642;-63
2021/09/15 04:16:48;;;;;;;8.70;6.00;;;16.60;95.70;;;;;;2066344;28;20178;-64
2021/09/15 04:17:49;;;;;;;7.20;5.80;;;16.60;95.60;;;;;;2066309;28;20483;-63
2021/09/15 04:18:50;;;;;;;7.77;6.30;;;16.60;95.60;;;;;;2066431;28;20652;-63
2021/09/15 04:19:50;;;;;;;11.00;6.20;;;16.60;95.60;;;;;;2065683;28;20549;-64
2021/09/15 04:20:51;;;;;;;9.30;6.43;;;16.60;95.60;;;;;;2065571;28;20260;-64
2021/09/15 04:21:52;;;;;;;7.20;5.93;;;16.60;95.60;;;;;;2065502;28;20672;-63
2021/09/15 04:22:53;;;;;;;10.10;5.73;;;16.60;95.60;;;;;;2066198;28;20210;-64
2021/09/15 04:32:05;;;;;;;11.20;6.37;;;16.50;96.00;;;;;;2066148;28;20880;-64
2021/09/15 04:33:06;;;;;;;11.40;6.20;;;16.40;96.50;;;;;;2066393;28;20430;-64
2021/09/15 04:34:07;;;;;;;12.07;7.40;;;16.30;96.60;;;;;;2066186;28;20182;-64
2021/09/15 04:35:08;;;;;;;10.53;7.10;;;16.30;96.60;;;;;;2066442;28;20637;-63
2021/09/15 04:36:09;;;;;;;11.63;6.97;;;16.30;96.60;;;;;;2066397;28;20669;-64
2021/09/15 04:37:09;;;;;;;9.00;6.93;;;16.30;96.60;;;;;;2066341;28;20414;-64
2021/09/15 04:38:10;;;;;;;9.33;6.93;;;16.30;97.00;;;;;;2066436;28;20174;-64
2021/09/15 04:39:11;;;;;;;9.33;7.30;;;16.20;97.10;;;;;;2066397;28;20189;-65
2021/09/15 04:40:12;;;;;;;10.03;6.23;;;16.20;97.30;;;;;;2066271;28;20257;-64
2021/09/15 04:41:13;;;;;;;13.83;7.60;;;16.20;97.20;;;;;;2066078;28;20185;-65
2021/09/15 04:42:14;;;;;;;7.80;5.90;;;16.20;97.20;;;;;;2066314;28;20449;-65
2021/09/15 04:43:14;;;;;;;8.67;5.90;;;16.20;97.10;;;;;;2066344;28;20563;-66
2021/09/15 04:44:15;;;;;;;7.70;5.80;;;16.20;97.10;;;;;;2066242;28;20274;-66
2021/09/15 04:45:16;;;;;;;7.33;6.37;;;16.20;97.20;;;;;;2066630;28;20174;-63
2021/09/15 04:46:17;;;;;;;9.33;5.27;;;16.20;97.20;;;;;;2066216;28;20185;-66
2021/09/15 04:47:17;;;;;;;7.93;6.20;;;16.20;97.40;;;;;;2066360;28;20174;-65
2021/09/15 04:48:18;;;;;;;8.50;6.20;;;16.20;97.40;;;;;;2066215;28;20182;-65
2021/09/15 04:49:19;;;;;;;11.07;6.60;;;16.20;97.40;;;;;;2066362;28;20590;-65
2021/09/15 04:50:19;;;;;;;8.97;5.90;;;16.20;97.40;;;;;;2066235;28;20179;-64
2021/09/15 04:51:21;;;;;;;8.40;5.97;;;16.20;97.20;;;;;;2066159;28;20181;-64
2021/09/15 04:52:21;;;;;;;9.30;6.23;;;16.30;97.30;;;;;;2065585;28;20368;-64
2021/09/15 04:53:22;;;;;;;14.43;6.90;;;16.30;97.40;;;;;;2065810;28;20421;-65
2021/09/15 04:54:23;;;;;;;9.17;6.53;;;16.30;97.20;;;;;;2066190;28;20546;-65
2021/09/15 04:55:24;;;;;;;15.67;7.07;;;16.30;97.20;;;;;;2066150;28;20179;-65
2021/09/15 04:56:25;;;;;;;9.03;6.23;;;16.40;97.20;;;;;;2066249;28;20667;-65
2021/09/15 04:57:25;;;;;;;10.10;6.87;;;16.40;96.90;;;;;;2066391;28;20452;-65
2021/09/15 04:58:26;;;;;;;8.33;6.00;;;16.40;97.20;;;;;;2066188;28;20170;-65
2021/09/15 04:59:27;;;;;;;7.90;6.30;;;16.40;96.70;;;;;;2066104;28;20189;-65
2021/09/15 05:00:28;;;;;;;9.70;6.17;;;16.40;96.70;;;;;;2066137;28;20179;-66
2021/09/15 05:01:28;;;;;;;11.50;6.80;;;16.40;96.60;;;;;;2066082;28;20182;-65
2021/09/15 05:02:29;;;;;;;9.87;7.00;;;16.40;96.70;;;;;;2066197;28;20257;-64
2021/09/15 05:03:29;;;;;;;10.90;6.57;;;16.40;96.80;;;;;;2066273;28;20660;-65
2021/09/15 05:04:30;;;;;;;11.83;6.37;;;16.40;96.70;;;;;;2066297;28;20174;-65
2021/09/15 05:05:31;;;;;;;12.30;6.47;;;16.40;96.60;;;;;;2066060;28;20182;-68
2021/09/15 05:06:32;;;;;;;13.30;7.80;;;16.50;96.60;;;;;;2066140;28;20171;-63
2021/09/15 05:07:33;;;;;;;9.40;6.67;;;16.50;96.60;;;;;;2066151;28;20631;-65
2021/09/15 05:08:33;;;;;;;12.27;7.50;;;16.40;96.70;;;;;;2065584;28;20270;-65
2021/09/15 05:09:34;;;;;;;10.13;6.90;;;16.50;96.80;;;;;;2057371;28;20187;-65
2021/09/15 05:10:35;;;;;;;10.10;7.70;;;16.40;96.90;;;;;;2065592;28;20209;-65
2021/09/15 05:11:36;;;;;;;12.00;7.10;;;16.40;97.00;;;;;;2065625;28;20185;-63
2021/09/15 05:12:36;;;;;;;12.83;7.83;;;16.40;97.10;;;;;;2066197;28;20210;-65
2021/09/15 05:13:37;;;;;;;13.17;7.53;;;16.40;97.20;;;;;;2066125;28;20182;-66
2021/09/15 05:14:38;;;;;;;14.43;7.73;;;16.40;97.10;;;;;;2066190;28;20217;-65
2021/09/15 05:15:38;;;;;;;14.80;8.10;;;16.40;97.10;;;;;;2066058;28;20179;-65
2021/09/15 05:16:39;;;;;;;11.20;6.77;;;16.40;97.00;;;;;;2065413;28;20178;-65
2021/09/15 05:17:40;;;;;;;12.73;6.70;;;16.50;97.00;;;;;;2065495;28;20182;-65
2021/09/15 05:18:40;;;;;;;11.30;7.63;;;16.50;96.90;;;;;;2066189;28;20550;-65
2021/09/15 05:19:41;;;;;;;7.93;6.87;;;16.50;96.70;;;;;;2066006;28;20178;-65
2021/09/15 05:20:42;;;;;;;9.17;6.07;;;16.50;96.60;;;;;;2066121;28;20183;-65
2021/09/15 05:21:42;;;;;;;11.80;7.43;;;16.50;96.60;;;;;;2065629;28;20637;-65
2021/09/15 05:22:48;;;;;;;14.60;7.00;;;16.50;96.60;;;;;;2066203;28;20189;-65
2021/09/15 05:23:48;;;;;;;12.70;7.47;;;16.60;96.60;;;;;;2057293;28;20179;-65
2021/09/15 05:24:49;;;;;;;12.37;7.73;;;16.60;96.60;;;;;;2056785;28;20431;-65